Latest Coastal Weather Observations for Cape Flattery

IDQ60701

Issued at 11:12 am EST Tuesday 2 March 2021 (issued every 10 minutes, with the page automatically refreshed every 10 minutes)

About coastal observations | Map of coastal stations | Coastal observations for QLD | Marine services | Other Formats
Station Details ID: 031213 Name: CAPE FLATTERY Lat: -14.97 Lon: 145.31 Height: 18.5 m
Data from the previous 72 hours. | See also: Recent months at Cape Flattery
Date/Time
EST
Wind Sea
Height
m
Swell Vis
km
Cloud Weather Temp
°C
Press
MSL
hPa
Rain since
9am
mm
Dir  Spd
kts
Gust
kts
Height
m
Period
s
Dir
02/11:00am WSW 10 15 - - - - - - - 26.0 1003.5 0.2
02/10:30am WSW 12 16 - - - - - - - 24.7 1003.7 0.2
02/10:00am WSW 11 16 - - - - - - - 23.8 1004.1 0.2
02/09:30am WSW 12 17 - - - - - - - 23.5 1004.1 0.0
02/09:00am WSW 12 19 - - - - - - Recent precip. 23.0 1004.2 8.2
02/08:30am WSW 11 15 - - - - - - - 22.9 1004.2 8.0
02/08:00am WSW 11 15 - - - - - - - 23.2 1004.2 7.8
02/07:30am WSW 11 15 - - - - - - - 23.3 1003.9 7.4
02/07:00am WSW 11 16 - - - - - - - 23.0 1003.6 7.4
02/06:30am WSW 10 14 - - - - - - - 23.0 1003.2 7.2
02/06:00am WSW 11 16 - - - - - - Rain 23.1 1002.8 7.2
02/05:30am WSW 12 17 - - - - - - - 23.2 1002.4 6.8
02/05:00am WSW 12 18 - - - - - - - 23.4 1002.1 6.0
02/04:30am WSW 10 14 - - - - - - - 23.3 1001.9 5.6
02/04:00am WSW 10 15 - - - - - - - 23.6 1002.0 4.8
02/03:30am WSW 7 9 - - - - - - - 23.4 1001.9 4.2
02/03:00am SW 6 8 - - - - - - Rain 23.5 1002.0 3.2
02/02:30am SW 7 11 - - - - - - - 23.8 1002.2 2.6
02/02:00am SW 6 8 - - - - - - - 24.0 1002.3 1.4
02/01:30am SW 6 10 - - - - - - - 24.3 1002.5 0.6
02/01:00am SW 9 14 - - - - - - - 25.2 1002.8 0.2
02/12:30am WSW 9 12 - - - - - - - 25.7 1002.7 0.2
02/12:00am WSW 8 16 - - - - - - - 26.9 1002.9 0.2
 
Date/Time
EST
Wind Sea
Height
m
Swell Vis
km
Cloud Weather Temp
°C
Press
MSL
hPa
Rain since
9am
mm
Dir  Spd
kts
Gust
kts
Height
m
Period
s
Dir
01/11:30pm WSW 9 12 - - - - - - - 26.9 1003.4 0.2
01/11:00pm WSW 11 17 - - - - - - - 28.4 1003.4 0.2
01/10:30pm W 10 15 - - - - - - - 28.5 1003.4 0.2
01/10:00pm WSW 9 11 - - - - - - - 28.6 1003.4 0.2
01/09:30pm W 10 15 - - - - - - - 28.7 1003.0 0.2
01/09:00pm W 8 12 - - - - - - - 28.3 1003.0 0.2
01/08:30pm W 7 12 - - - - - - - 28.3 1003.0 0.2
01/08:00pm WNW 6 9 - - - - - - - 28.0 1002.7 0.2
01/07:30pm W 6 9 - - - - - - - 27.9 1002.3 0.2
01/07:00pm W 5 7 - - - - - - - 28.2 1002.3 0.2
01/06:30pm WSW 7 10 - - - - - - - 28.8 1002.1 0.2
01/06:00pm SW 8 11 - - - - - - - 29.2 1001.9 0.2
01/05:30pm SW 14 19 - - - - - - - 30.0 1001.8 0.2
01/05:00pm SW 18 25 - - - - - - - 30.6 1001.2 0.2
01/04:52pm SW 15 25 - - - - - - - 31.0 1001.1 0.2
01/04:30pm SW 17 22 - - - - - - - 32.1 1000.6 0.2
01/04:00pm W 10 14 - - - - - - - 32.9 1000.4 0.2
01/03:30pm WSW 11 15 - - - - - - - 32.2 1000.3 0.2
01/03:00pm WSW 11 15 - - - - - - - 31.9 1000.2 0.2
01/02:30pm WSW 11 16 - - - - - - - 33.7 1000.4 0.2
01/02:00pm WSW 11 17 - - - - - - - 33.8 1000.7 0.2
01/01:30pm WSW 10 14 - - - - - - - 33.3 1001.0 0.2
01/01:00pm WSW 9 15 - - - - - - - 33.1 1001.7 0.2
01/12:30pm WSW 7 11 - - - - - - - 33.3 1002.3 0.2
01/12:00pm WSW 9 13 - - - - - - - 32.2 1003.0 0.2
01/11:30am WSW 9 13 - - - - - - - 31.7 1003.4 0.2
01/11:00am WSW 9 13 - - - - - - - 30.9 1003.0 0.2
01/10:30am WSW 10 14 - - - - - - - 30.1 1003.1 0.2
01/10:00am SW 11 14 - - - - - - - 28.9 1003.3 0.2
01/09:30am WSW 9 15 - - - - - - - 28.8 1003.3 0.0
01/09:00am W 10 14 - - - - - - - 27.8 1003.0 71.4
01/08:30am W 10 14 - - - - - - - 26.6 1002.9 71.4
01/08:00am WNW 8 12 - - - - - - - 25.2 1002.3 71.4
01/07:30am WNW 6 8 - - - - - - - 24.9 1002.7 71.4
01/07:00am W 6 8 - - - - - - - 24.6 1002.5 71.4
01/06:30am W 5 8 - - - - - - - 24.3 1002.4 71.4
01/06:00am CALM 0 0 - - - - - - - 23.8 1001.9 71.4
01/05:30am WNW 4 5 - - - - - - - 23.9 1001.6 71.4
01/05:00am WNW 3 4 - - - - - - - 24.0 1001.9 71.4
01/04:30am NW 5 6 - - - - - - - 24.2 1002.2 71.4
01/04:00am WNW 4 5 - - - - - - - 24.1 1002.4 71.4
01/03:30am SW 5 7 - - - - - - - 24.1 1002.2 71.4
01/03:00am WSW 2 6 - - - - - - - 24.0 1002.3 71.4
01/02:30am WSW 4 8 - - - - - - - 23.9 1002.6 71.4
01/02:00am W 4 6 - - - - - - - 24.1 1003.0 71.4
01/01:30am WSW 5 6 - - - - - - - 24.3 1003.6 71.4
01/01:00am WNW 6 7 - - - - - - - 24.5 1004.1 71.2
01/12:30am WNW 5 6 - - - - - - - 24.7 1004.9 70.8
01/12:00am SSW 5 6 - - - - - - - 24.8 1005.2 70.8
 
Date/Time
EST
Wind Sea
Height
m
Swell Vis
km
Cloud Weather Temp
°C
Press
MSL
hPa
Rain since
9am
mm
Dir  Spd
kts
Gust
kts
Height
m
Period
s
Dir
28/11:30pm SSE 7 9 - - - - - - - 24.8 1005.2 70.8
28/11:00pm SE 10 14 - - - - - - - 24.9 1005.2 70.8
28/10:30pm SE 12 16 - - - - - - - 24.7 1005.3 70.6
28/10:00pm SE 5 6 - - - - - - - 24.8 1005.4 70.6
28/09:30pm CALM 0 3 - - - - - - - 24.4 1005.0 70.6
28/09:00pm W 3 5 - - - - - - Recent precip. 24.5 1004.9 70.6
28/08:30pm N 3 4 - - - - - - - 24.8 1004.5 70.2
28/08:00pm NNW 3 4 - - - - - - - 24.6 1004.6 69.8
28/07:30pm NNW 5 7 - - - - - - - 24.5 1004.4 69.6
28/07:00pm NNW 3 5 - - - - - - - 24.3 1004.5 68.8
28/06:30pm NNW 3 5 - - - - - - - 24.8 1004.3 62.4
28/06:00pm SW 4 8 - - - - - - Showers 24.9 1004.0 41.4
28/05:30pm SW 5 11 - - - - - - - 26.1 1003.2 2.2
28/05:00pm NNE 7 9 - - - - - - - 28.3 1002.5 0.0
28/04:30pm N 7 11 - - - - - - - 28.6 1002.4 0.0
28/04:00pm N 7 10 - - - - - - - 29.2 1002.3 0.0
28/03:30pm N 7 8 - - - - - - - 29.3 1002.4 0.0
28/03:00pm N 6 9 - - - - - - - 28.9 1002.6 0.0
28/02:30pm N 9 11 - - - - - - - 29.9 1002.6 0.0
28/02:00pm N 9 11 - - - - - - - 29.5 1003.2 0.0
28/01:30pm N 8 11 - - - - - - - 29.5 1003.6 0.0
28/01:00pm NNW 7 10 - - - - - - - 29.6 1004.3 0.0
28/12:30pm NW 8 10 - - - - - - - 29.2 1004.9 0.0
28/12:00pm N 6 8 - - - - - - - 29.0 1005.4 0.0
28/11:30am N 6 8 - - - - - - - 29.0 1005.8 0.0
28/11:00am WNW 5 7 - - - - - - - 29.0 1006.0 0.0
28/10:30am SW 6 8 - - - - - - - 28.2 1006.5 0.0
28/10:00am W 5 7 - - - - - - - 27.7 1006.7 0.0
28/09:30am WNW 5 7 - - - - - - - 27.0 1006.6 0.0
28/09:00am WSW 5 7 - - - - - - Recent precip. 26.3 1006.6 4.2
28/08:30am WSW 4 6 - - - - - - - 25.9 1006.9 4.2
28/08:00am SW 4 5 - - - - - - - 25.4 1006.9 4.0
28/07:30am SSW 5 7 - - - - - - - 25.2 1006.7 3.6
28/07:00am SSW 5 8 - - - - - - - 25.5 1006.4 3.0
28/06:30am SW 5 7 - - - - - - - 25.4 1005.9 3.0
28/06:00am SW 5 6 - - - - - - - 25.3 1005.5 3.0
28/05:30am WSW 4 5 - - - - - - - 25.2 1005.0 3.0
28/05:00am S 5 7 - - - - - - - 25.3 1004.8 3.0
28/04:30am SSW 5 6 - - - - - - - 25.2 1004.5 3.0
28/04:00am SW 5 6 - - - - - - - 25.1 1004.5 3.0
28/03:30am WSW 1 4 - - - - - - - 25.2 1004.5 3.0
28/03:00am W 3 5 - - - - - - - 25.4 1004.9 3.0
28/02:30am S 2 4 - - - - - - - 25.4 1005.2 3.0
28/02:00am SE 4 6 - - - - - - - 25.4 1005.6 3.0
28/01:30am S 9 11 - - - - - - - 25.8 1005.9 3.0
28/01:00am CALM 0 3 - - - - - - - 25.8 1006.2 2.6
28/12:30am CALM 0 2 - - - - - - - 25.7 1006.4 1.8
28/12:00am S 4 6 - - - - - - Recent precip. 26.0 1006.6 1.8
 
Date/Time
EST
Wind Sea
Height
m
Swell Vis
km
Cloud Weather Temp
°C
Press
MSL
hPa
Rain since
9am
mm
Dir  Spd
kts
Gust
kts
Height
m
Period
s
Dir
27/11:30pm S 6 7 - - - - - - - 26.1 1007.1 1.8
27/11:00pm S 4 5 - - - - - - - 25.9 1007.3 1.6
27/10:30pm S 5 5 - - - - - - - 26.2 1007.3 1.6
27/10:00pm S 7 9 - - - - - - - 26.5 1007.1 1.6
27/09:30pm SSE 7 8 - - - - - - - 26.5 1006.8 1.6
27/09:00pm SSE 8 11 - - - - - - - 26.5 1006.4 1.6
27/08:30pm SSE 7 11 - - - - - - - 26.4 1005.9 1.6
27/08:00pm SSE 3 5 - - - - - - - 26.0 1005.7 1.6
27/07:30pm S 4 5 - - - - - - - 26.1 1005.5 1.6
27/07:00pm SSE 4 5 - - - - - - - 26.4 1005.0 1.6
27/06:30pm CALM 0 0 - - - - - - - 27.0 1004.7 1.6
27/06:00pm CALM 0 0 - - - - - - Recent precip. 27.3 1004.8 1.6
27/05:30pm SE 1 3 - - - - - - - 27.1 1004.6 1.4
27/05:00pm SE 4 5 - - - - - - - 27.1 1004.3 0.8
27/04:30pm S 6 8 - - - - - - - 27.3 1004.0 0.4
27/04:00pm SE 6 8 - - - - - - - 28.4 1004.2 0.2
27/03:30pm SE 7 9 - - - - - - - 28.6 1004.0 0.2
27/03:00pm SE 7 10 - - - - - - - 28.7 1003.8 0.2
27/02:30pm SE 9 12 - - - - - - - 29.3 1004.1 0.2
27/02:00pm SE 8 11 - - - - - - - 29.6 1004.5 0.2
27/01:30pm SSE 8 10 - - - - - - - 29.5 1004.9 0.2
27/01:00pm SSE 7 11 - - - - - - - 29.4 1005.4 0.2
27/12:30pm SSW 7 10 - - - - - - - 29.0 1005.9 0.2
27/12:00pm S 7 9 - - - - - - Recent precip. 28.8 1006.2 0.2
27/11:30am S 6 9 - - - - - - - 28.6 1006.5 0.2

Other formats

Comma delimited format used in spreadsheet applications
http://www.bom.gov.au/fwo/IDQ60701/IDQ60701.94188.axf

JavaScript Object Notation format (JSON) in row-major order
http://www.bom.gov.au/fwo/IDQ60701/IDQ60701.94188.json

Data quality

Most of these data are generated automatically and are frequently updated. Quality checks on data are not normally performed. It is possible for incorrect values to appear. Refer to information at About Latest Weather Observations and please check the disclaimer before using these data.